Choconut Center, New York
Current Conditions -  °F | °C
As of 8:53 AM on Monday 22 Dec 2014 (Local Time) from KBGM Reporting Station
Overcast Overcast  
Wind Chill: 21°   Ceiling: 1100
Heat Index: 29°   Visibility: 10mi
Dew Point: 25°   Wind: 8mph
Humidity: 85%   Direction: 160°SSE
Pressure: 30.23"   Gusts: NA
Location:  42.1759°N, 75.9402°W
Report Text: KBGM 221353Z 16007KT 10SM OVC011 M02/M04 A3023 RMK AO2 SLP256 T10171039
Loading
Personal Weather Stations






























Interactive Weather Map New forecast layout! Learn more

10-Day Weather Forecast

Advertisements
Track Severe Weather on mobile